Time;durP1;ratioP1;P1;durP2;ratioP2;P2;SDS_P1;SDS_P2;PMS_P1;PMS_P2;Temp;Humidity;BMP_temperature;BMP_pressure;BME280_temperature;BME280_humidity;BME280_pressure;Samples;Min_cycle;Max_cycle;Signal;HPM_P1;HPM_P2
2021/11/27 00:00:43;;;;;;;19.60;10.10;;;2.40;99.90;;;;;;5054792;28;20109;-86
2021/11/27 00:03:11;;;;;;;15.73;9.35;;;2.30;99.90;;;;;;5055351;28;20417;-87
2021/11/27 00:05:39;;;;;;;13.95;9.68;;;2.30;99.90;;;;;;5055653;28;20047;-87
2021/11/27 00:08:08;;;;;;;14.18;9.57;;;2.30;99.90;;;;;;5055364;28;20127;-87
2021/11/27 00:10:37;;;;;;;18.27;10.50;;;2.30;99.90;;;;;;5072756;28;20499;-87
2021/11/27 00:13:05;;;;;;;18.48;9.85;;;2.30;99.90;;;;;;5058969;28;20056;-87
2021/11/27 00:15:34;;;;;;;15.50;9.32;;;2.30;99.90;;;;;;5060751;28;20048;-87
2021/11/27 00:18:01;;;;;;;14.18;8.88;;;2.30;99.90;;;;;;5079346;28;20063;-86
2021/11/27 00:20:34;;;;;;;15.02;9.48;;;2.30;99.90;;;;;;5058700;28;20041;-88
2021/11/27 00:23:01;;;;;;;19.35;9.20;;;2.20;99.90;;;;;;5058914;28;20056;-88
2021/11/27 00:25:28;;;;;;;12.98;9.13;;;2.20;99.90;;;;;;5058815;28;20508;-89
2021/11/27 00:27:54;;;;;;;14.10;9.20;;;2.10;99.90;;;;;;5058808;28;20465;-88
2021/11/27 00:30:24;;;;;;;12.30;8.43;;;2.10;99.90;;;;;;5058729;28;20110;-87
2021/11/27 00:32:51;;;;;;;13.68;8.82;;;2.10;99.90;;;;;;5075994;28;20045;-88
2021/11/27 00:35:19;;;;;;;13.88;8.35;;;2.20;99.90;;;;;;5058338;28;20076;-87
2021/11/27 00:37:52;;;;;;;14.85;8.80;;;2.20;99.90;;;;;;5058774;28;20056;-88
2021/11/27 00:40:19;;;;;;;;;;;2.20;99.90;;;;;;5076469;28;20044;-89
2021/11/27 00:42:47;;;;;;;11.60;7.60;;;2.20;99.90;;;;;;5057985;28;19943;-87
2021/11/27 00:45:16;;;;;;;13.25;8.93;;;2.10;99.90;;;;;;5058243;28;20110;-87
2021/11/27 00:47:48;;;;;;;12.98;9.02;;;2.10;99.90;;;;;;5057930;28;20068;-87
2021/11/27 00:50:18;;;;;;;13.23;7.82;;;2.00;99.90;;;;;;5058250;28;20443;-88
2021/11/27 00:52:45;;;;;;;13.68;8.52;;;2.00;99.90;;;;;;5058189;28;20051;-88
2021/11/27 00:55:13;;;;;;;10.88;7.80;;;2.00;99.90;;;;;;5058127;28;20135;-88
2021/11/27 00:57:41;;;;;;;12.40;8.25;;;2.00;99.90;;;;;;5058052;28;20599;-88
2021/11/27 01:00:14;;;;;;;10.55;7.30;;;2.00;99.90;;;;;;5058050;28;20058;-87
2021/11/27 01:02:41;;;;;;;11.38;7.82;;;2.00;99.90;;;;;;5052989;28;20447;-88
2021/11/27 01:05:11;;;;;;;10.90;7.55;;;2.00;99.90;;;;;;5057902;28;20052;-91
2021/11/27 01:07:39;;;;;;;10.80;6.80;;;2.00;99.90;;;;;;5057830;28;20122;-86
2021/11/27 01:10:09;;;;;;;11.60;7.38;;;2.00;99.90;;;;;;5075257;28;20118;-91
2021/11/27 01:12:36;;;;;;;12.25;7.43;;;2.10;99.90;;;;;;5057775;28;20455;-86
2021/11/27 01:15:05;;;;;;;10.00;7.20;;;2.20;99.90;;;;;;5057723;28;20048;-87
2021/11/27 01:17:32;;;;;;;10.98;7.45;;;2.20;99.90;;;;;;5057647;28;20075;-90
2021/11/27 01:19:59;;;;;;;11.02;7.07;;;2.30;99.90;;;;;;5075238;28;20109;-88
2021/11/27 01:22:25;;;;;;;10.93;8.00;;;2.40;99.90;;;;;;5074066;28;20063;-88
2021/11/27 01:24:53;;;;;;;12.43;8.05;;;2.40;99.90;;;;;;5057436;28;20416;-87
2021/11/27 01:27:20;;;;;;;12.10;8.35;;;2.40;99.90;;;;;;5057460;28;20455;-90
2021/11/27 01:29:47;;;;;;;12.20;8.23;;;2.40;99.90;;;;;;5075344;28;20122;-89
2021/11/27 01:32:14;;;;;;;16.65;9.00;;;2.40;99.90;;;;;;5063389;28;20055;-89
2021/11/27 01:34:42;;;;;;;15.18;9.48;;;2.30;99.90;;;;;;5075192;28;20456;-89
2021/11/27 01:37:09;;;;;;;17.52;9.77;;;2.20;99.90;;;;;;5057187;28;20071;-90
2021/11/27 01:39:37;;;;;;;16.45;9.68;;;2.10;99.90;;;;;;5057420;28;20095;-86
2021/11/27 01:42:05;;;;;;;17.73;10.23;;;2.10;99.90;;;;;;5057180;28;20135;-86
2021/11/27 01:44:32;;;;;;;17.20;10.50;;;2.10;99.90;;;;;;5057245;28;20040;-86
2021/11/27 01:46:58;;;;;;;16.70;10.20;;;2.10;99.90;;;;;;5074589;28;20139;-86
2021/11/27 01:49:27;;;;;;;15.80;10.13;;;2.10;99.90;;;;;;5057108;28;20060;-88
2021/11/27 01:51:54;;;;;;;16.83;10.20;;;2.20;99.90;;;;;;5057108;28;20044;-88
2021/11/27 01:54:21;;;;;;;20.05;10.95;;;2.20;99.90;;;;;;5074388;28;20093;-86
2021/11/27 01:56:53;;;;;;;18.65;11.00;;;2.30;99.90;;;;;;5056783;28;20059;-88
2021/11/27 01:59:20;;;;;;;18.75;10.77;;;2.30;99.90;;;;;;5074315;28;20106;-87
2021/11/27 02:01:48;;;;;;;17.23;10.90;;;2.40;99.90;;;;;;5056918;28;20070;-88
2021/11/27 02:04:15;;;;;;;18.17;10.52;;;2.40;99.90;;;;;;5074356;28;20047;-87
2021/11/27 02:06:44;;;;;;;19.00;11.40;;;2.30;99.90;;;;;;5056383;28;20140;-88
2021/11/27 02:09:23;;;;;;;19.58;11.13;;;2.30;99.90;;;;;;5056617;28;20049;-87
2021/11/27 02:11:51;;;;;;;19.20;11.60;;;2.40;99.90;;;;;;5056703;28;20055;-87
2021/11/27 02:14:19;;;;;;;20.90;11.52;;;2.30;99.90;;;;;;5056674;28;20059;-88
2021/11/27 02:16:46;;;;;;;21.35;11.60;;;2.40;99.90;;;;;;5073981;28;20475;-88
2021/11/27 02:19:14;;;;;;;21.02;11.50;;;2.40;99.90;;;;;;5056185;28;20118;-88
2021/11/27 02:21:44;;;;;;;19.35;11.30;;;2.40;99.90;;;;;;5056258;28;20049;-87
2021/11/27 02:24:13;;;;;;;19.05;10.38;;;2.30;99.90;;;;;;5056507;28;20056;-88
2021/11/27 02:26:41;;;;;;;18.63;10.23;;;2.40;99.90;;;;;;5074114;28;20048;-87
2021/11/27 02:29:13;;;;;;;19.42;11.93;;;2.40;99.90;;;;;;5056262;28;20041;-87
2021/11/27 02:31:39;;;;;;;19.63;10.70;;;2.40;99.90;;;;;;5056206;28;20090;-88
2021/11/27 02:34:07;;;;;;;22.33;12.07;;;2.50;99.90;;;;;;5073505;28;20526;-88
2021/11/27 02:36:36;;;;;;;19.63;11.88;;;2.50;99.90;;;;;;5074021;28;20056;-87
2021/11/27 02:39:06;;;;;;;21.67;12.05;;;2.40;99.90;;;;;;5055846;28;20488;-88
2021/11/27 02:41:34;;;;;;;18.20;11.23;;;2.40;99.90;;;;;;5056007;28;20059;-88
2021/11/27 02:44:01;;;;;;;22.60;12.57;;;2.30;99.90;;;;;;5055962;28;20059;-88
2021/11/27 02:46:27;;;;;;;21.63;13.23;;;2.30;99.90;;;;;;5058958;28;20045;-88
2021/11/27 02:48:54;;;;;;;24.75;12.73;;;2.30;99.90;;;;;;5059172;28;20056;-87
2021/11/27 02:51:21;;;;;;;23.83;12.65;;;2.20;99.90;;;;;;5056033;28;20485;-88
2021/11/27 02:53:48;;;;;;;20.15;12.43;;;2.20;99.90;;;;;;5073722;28;20084;-87
2021/11/27 02:56:15;;;;;;;22.92;12.70;;;2.10;99.90;;;;;;5055811;28;20040;-88
2021/11/27 02:58:42;;;;;;;25.23;13.75;;;2.20;99.90;;;;;;5055819;28;20469;-88
2021/11/27 03:01:10;;;;;;;20.92;12.13;;;2.20;99.90;;;;;;5055700;28;20058;-88
2021/11/27 03:03:38;;;;;;;23.35;12.85;;;2.20;99.90;;;;;;5072999;28;20045;-88
2021/11/27 03:06:06;;;;;;;21.75;13.30;;;2.10;99.90;;;;;;5055845;28;20492;-87
2021/11/27 03:08:34;;;;;;;22.40;13.75;;;2.10;99.90;;;;;;5055802;28;20488;-88
2021/11/27 03:11:01;;;;;;;24.70;14.55;;;2.00;99.90;;;;;;5055796;28;20105;-88
2021/11/27 03:13:33;;;;;;;25.45;14.10;;;2.10;99.90;;;;;;5055764;28;20052;-88
2021/11/27 03:16:00;;;;;;;26.02;13.13;;;2.00;99.90;;;;;;5055812;28;20110;-88
2021/11/27 03:18:28;;;;;;;22.50;13.80;;;2.00;99.90;;;;;;5072897;28;20143;-88
2021/11/27 03:20:55;;;;;;;26.38;13.95;;;2.10;99.90;;;;;;5055643;28;20074;-88
2021/11/27 03:23:22;;;;;;;24.90;14.25;;;2.10;99.90;;;;;;5055356;28;20102;-88
2021/11/27 03:25:49;;;;;;;24.15;14.55;;;2.10;99.90;;;;;;5055500;28;20505;-87
2021/11/27 03:28:17;;;;;;;22.92;13.82;;;2.10;99.90;;;;;;5055650;28;20105;-88
2021/11/27 03:30:44;;;;;;;27.20;14.82;;;2.10;99.90;;;;;;5055132;28;20052;-88
2021/11/27 03:33:10;;;;;;;25.30;14.57;;;2.00;99.90;;;;;;5055117;28;20052;-88
2021/11/27 03:35:37;;;;;;;28.52;15.82;;;2.10;99.90;;;;;;5055673;28;20382;-88
2021/11/27 03:38:04;;;;;;;26.10;15.50;;;2.00;99.90;;;;;;5055081;28;20488;-88
2021/11/27 03:40:31;;;;;;;27.75;15.02;;;1.90;99.90;;;;;;5054976;28;20134;-85
2021/11/27 03:42:59;;;;;;;26.55;14.68;;;1.90;99.90;;;;;;5055072;28;20120;-88
2021/11/27 03:45:27;;;;;;;26.02;14.18;;;2.00;99.90;;;;;;5055266;28;20070;-88
2021/11/27 03:47:58;;;;;;;25.42;14.20;;;2.00;99.90;;;;;;5059188;28;20102;-88
2021/11/27 03:50:31;;;;;;;25.65;15.40;;;1.90;99.90;;;;;;5059244;28;20087;-87
2021/11/27 03:52:59;;;;;;;24.27;13.57;;;1.90;99.90;;;;;;5059071;28;20082;-88
2021/11/27 03:55:26;;;;;;;27.23;15.20;;;1.80;99.90;;;;;;5076989;28;20044;-86
2021/11/27 03:57:52;;;;;;;26.02;14.93;;;1.80;99.90;;;;;;5076726;28;20048;-87
2021/11/27 04:00:19;;;;;;;25.73;14.45;;;1.70;99.90;;;;;;5076734;28;20063;-88
2021/11/27 04:02:46;;;;;;;29.67;15.20;;;1.60;99.90;;;;;;5082978;28;20045;-87
2021/11/27 04:05:14;;;;;;;28.02;15.90;;;1.60;99.90;;;;;;5059696;28;20048;-88
2021/11/27 04:07:41;;;;;;;28.52;16.02;;;1.50;99.90;;;;;;5076583;28;20048;-88
2021/11/27 04:10:08;;;;;;;29.33;16.10;;;1.50;99.90;;;;;;5058982;28;20076;-88
2021/11/27 04:12:35;;;;;;;26.45;15.45;;;1.50;99.90;;;;;;5058996;28;20056;-88
2021/11/27 04:15:07;;;;;;;29.58;15.73;;;1.40;99.90;;;;;;5075959;28;20056;-87
2021/11/27 04:17:34;;;;;;;28.10;16.50;;;1.30;99.90;;;;;;5076128;28;20090;-88
2021/11/27 04:20:02;;;;;;;28.65;16.25;;;1.20;99.90;;;;;;5076009;28;20048;-85
2021/11/27 04:22:30;;;;;;;29.52;16.08;;;1.30;99.90;;;;;;5075966;28;20052;-86
2021/11/27 04:24:56;;;;;;;28.45;16.35;;;1.20;99.90;;;;;;5058646;28;20106;-85
2021/11/27 04:27:23;;;;;;;34.55;17.42;;;1.20;99.90;;;;;;5058809;28;20045;-88
2021/11/27 04:29:50;;;;;;;29.90;16.35;;;1.20;99.90;;;;;;5058473;28;20045;-88
2021/11/27 04:32:17;;;;;;;35.25;17.85;;;1.20;99.90;;;;;;5058101;28;20575;-88
2021/11/27 04:34:44;;;;;;;31.15;17.05;;;1.20;99.90;;;;;;5058275;28;20583;-88
2021/11/27 04:37:13;;;;;;;37.03;18.67;;;1.20;99.90;;;;;;5058409;28;20051;-87
2021/11/27 04:39:41;;;;;;;32.22;17.30;;;1.20;99.90;;;;;;5058473;28;20045;-88
2021/11/27 04:42:08;;;;;;;28.42;15.88;;;1.30;99.90;;;;;;5058680;28;20128;-88
2021/11/27 04:44:35;;;;;;;28.83;16.25;;;1.30;99.90;;;;;;5058366;28;20084;-87
2021/11/27 04:47:02;;;;;;;31.38;16.90;;;1.40;99.90;;;;;;5075894;28;20135;-88
2021/11/27 04:49:29;;;;;;;29.15;16.42;;;1.40;99.90;;;;;;5058351;28;20056;-88
2021/11/27 04:51:56;;;;;;;27.95;16.27;;;1.40;99.90;;;;;;5058462;28;20131;-88
2021/11/27 04:54:22;;;;;;;31.73;17.35;;;1.30;99.90;;;;;;5075646;28;20044;-86
2021/11/27 04:56:49;;;;;;;39.15;18.23;;;1.30;99.90;;;;;;5057881;28;20560;-88
2021/11/27 04:59:16;;;;;;;36.13;18.30;;;1.30;99.90;;;;;;5075055;28;20045;-88
2021/11/27 05:01:43;;;;;;;40.63;19.10;;;1.20;99.90;;;;;;5058078;28;20480;-86
2021/11/27 05:04:10;;;;;;;36.80;19.20;;;1.10;99.90;;;;;;5057951;28;20051;-88
2021/11/27 05:06:37;;;;;;;35.33;18.27;;;1.20;99.90;;;;;;5075586;28;20052;-87
2021/11/27 05:09:04;;;;;;;37.05;18.25;;;1.30;99.90;;;;;;5057825;28;20052;-87
2021/11/27 05:11:30;;;;;;;33.13;17.60;;;1.20;99.90;;;;;;5057923;28;20136;-88
2021/11/27 05:13:57;;;;;;;33.72;17.30;;;1.30;99.90;;;;;;5075400;28;20051;-88
2021/11/27 05:16:26;;;;;;;31.50;16.95;;;1.40;99.90;;;;;;5076665;28;20076;-88
2021/11/27 05:18:54;;;;;;;32.60;17.05;;;1.40;99.90;;;;;;5081398;28;20090;-88
2021/11/27 05:21:20;;;;;;;36.97;17.65;;;1.40;99.90;;;;;;5075310;28;20072;-88
2021/11/27 05:23:47;;;;;;;38.47;18.77;;;1.40;99.90;;;;;;5057739;28;20139;-88
2021/11/27 05:26:14;;;;;;;37.25;18.52;;;1.40;99.90;;;;;;5057397;28;20049;-87
2021/11/27 05:28:41;;;;;;;35.50;18.00;;;1.50;99.90;;;;;;5057244;28;20044;-87
2021/11/27 05:31:11;;;;;;;34.80;18.60;;;1.50;99.90;;;;;;5057390;28;20493;-87
2021/11/27 05:36:18;;;;;;;36.63;18.35;;;1.60;99.90;;;;;;5074894;28;20052;-88
2021/11/27 05:38:46;;;;;;;32.63;16.70;;;1.60;99.90;;;;;;5073461;28;20048;-88
2021/11/27 05:41:14;;;;;;;31.10;17.08;;;1.70;99.90;;;;;;5057125;28;20080;-88
2021/11/27 05:43:42;;;;;;;34.97;17.27;;;1.70;99.90;;;;;;5057026;28;20049;-88
2021/11/27 05:46:09;;;;;;;28.73;15.95;;;1.70;99.90;;;;;;5057295;28;20055;-87
2021/11/27 05:48:36;;;;;;;55.40;18.55;;;1.70;99.90;;;;;;5057361;28;20048;-88
2021/11/27 05:51:04;;;;;;;37.70;18.08;;;1.80;99.90;;;;;;5057146;28;20484;-87
2021/11/27 05:53:31;;;;;;;34.08;17.25;;;1.80;99.90;;;;;;5057141;28;20052;-87
2021/11/27 05:55:59;;;;;;;33.67;16.50;;;1.80;99.90;;;;;;5074693;28;20044;-88
2021/11/27 05:58:26;;;;;;;29.98;16.77;;;1.80;99.90;;;;;;5056634;28;20052;-87
2021/11/27 06:00:53;;;;;;;28.80;16.33;;;1.80;99.90;;;;;;5056969;28;20127;-88
2021/11/27 06:03:20;;;;;;;27.45;16.92;;;1.70;99.90;;;;;;5056991;28;20416;-87
2021/11/27 06:05:46;;;;;;;56.55;33.33;;;1.70;99.90;;;;;;5057053;28;20102;-87
2021/11/27 06:08:13;;;;;;;31.48;18.63;;;1.70;99.90;;;;;;5056583;28;20055;-87
2021/11/27 06:10:40;;;;;;;26.33;16.23;;;1.80;99.90;;;;;;5056726;28;20054;-88
2021/11/27 06:13:07;;;;;;;22.45;14.88;;;1.90;99.90;;;;;;5056736;28;20080;-87
2021/11/27 06:15:34;;;;;;;29.88;16.63;;;1.90;99.90;;;;;;5056645;28;20048;-87
2021/11/27 06:18:01;;;;;;;27.35;15.85;;;1.90;99.90;;;;;;5056250;28;20059;-87
2021/11/27 06:20:28;;;;;;;22.27;13.48;;;1.90;99.90;;;;;;5056346;28;20099;-87
2021/11/27 06:22:55;;;;;;;31.30;20.80;;;1.90;99.90;;;;;;5056003;28;20053;-87
2021/11/27 06:25:24;;;;;;;21.10;14.57;;;1.90;99.90;;;;;;5074006;28;20078;-87
2021/11/27 06:27:51;;;;;;;33.50;21.63;;;1.90;99.90;;;;;;5056132;28;20045;-87
2021/11/27 06:30:18;;;;;;;22.75;15.00;;;1.90;99.90;;;;;;5056134;28;20412;-86
2021/11/27 06:32:45;;;;;;;28.70;16.83;;;1.90;99.90;;;;;;5076012;28;20044;-86
2021/11/27 06:35:13;;;;;;;24.63;16.50;;;1.90;99.90;;;;;;5060170;28;20515;-87
2021/11/27 06:37:40;;;;;;;25.60;15.95;;;1.90;99.90;;;;;;5056262;28;20048;-86
2021/11/27 06:40:09;;;;;;;26.42;16.92;;;1.90;99.90;;;;;;5055537;28;20048;-86
2021/11/27 06:42:35;;;;;;;37.38;22.38;;;1.90;99.90;;;;;;5055641;28;20045;-87
2021/11/27 06:45:03;;;;;;;31.17;18.33;;;1.80;99.90;;;;;;5055216;28;20059;-87
2021/11/27 06:47:30;;;;;;;27.92;16.98;;;2.00;99.90;;;;;;5073377;28;20071;-87
2021/11/27 06:49:57;;;;;;;24.30;15.05;;;2.10;99.90;;;;;;5073524;28;20052;-87
2021/11/27 06:52:24;;;;;;;26.23;16.52;;;2.00;99.90;;;;;;5073247;28;20518;-86
2021/11/27 06:54:50;;;;;;;23.83;15.07;;;2.10;99.90;;;;;;5073250;28;20084;-87
2021/11/27 06:57:20;;;;;;;26.95;16.08;;;2.10;99.90;;;;;;5073790;28;20090;-86
2021/11/27 06:59:47;;;;;;;43.70;30.80;;;2.20;99.90;;;;;;5073372;28;20135;-87
2021/11/27 07:02:14;;;;;;;26.70;16.55;;;2.20;99.90;;;;;;5055665;28;20526;-86
2021/11/27 07:04:41;;;;;;;24.50;15.00;;;2.20;99.90;;;;;;5055690;28;20067;-87
2021/11/27 07:07:07;;;;;;;31.77;19.77;;;2.20;99.90;;;;;;5055866;28;20460;-87
2021/11/27 07:09:34;;;;;;;24.15;14.90;;;2.20;99.90;;;;;;5073025;28;20455;-87
2021/11/27 07:12:01;;;;;;;25.90;16.88;;;2.20;99.90;;;;;;5055714;28;20151;-86
2021/11/27 07:14:28;;;;;;;22.30;14.63;;;2.30;99.90;;;;;;5055201;28;20048;-87
2021/11/27 07:16:55;;;;;;;61.17;29.88;;;2.30;99.90;;;;;;5055356;28;20132;-86
2021/11/27 07:19:21;;;;;;;49.30;25.00;;;2.30;99.90;;;;;;5055209;28;20060;-87
2021/11/27 07:21:48;;;;;;;42.13;22.13;;;2.40;99.90;;;;;;5072517;28;20051;-87
2021/11/27 07:24:15;;;;;;;36.80;21.50;;;2.30;99.90;;;;;;5055095;28;20420;-86
2021/11/27 07:26:42;;;;;;;38.10;21.63;;;2.40;99.90;;;;;;5055337;28;20139;-86
2021/11/27 07:29:09;;;;;;;31.25;18.55;;;2.50;99.90;;;;;;5072623;28;20135;-87
2021/11/27 07:31:35;;;;;;;29.88;16.83;;;2.60;99.90;;;;;;5055260;28;20044;-87
2021/11/27 07:34:02;;;;;;;30.13;16.75;;;2.60;99.90;;;;;;5055202;28;20135;-87
2021/11/27 07:36:29;;;;;;;25.50;16.17;;;2.70;99.90;;;;;;5055604;28;20484;-86
2021/11/27 07:39:02;;;;;;;31.40;18.00;;;2.80;99.90;;;;;;5056076;28;20163;-86
2021/11/27 07:41:30;;;;;;;35.63;20.10;;;2.80;99.90;;;;;;5055178;28;20535;-86
2021/11/27 07:43:56;;;;;;;27.67;16.63;;;2.80;99.90;;;;;;5054520;28;20083;-86
2021/11/27 07:46:23;;;;;;;28.50;17.38;;;2.70;99.90;;;;;;5072402;28;20104;-86
2021/11/27 07:48:50;;;;;;;27.17;16.08;;;2.70;99.90;;;;;;5084428;28;20055;-86
2021/11/27 07:51:18;;;;;;;24.30;14.85;;;2.70;99.90;;;;;;5059729;28;20063;-86
2021/11/27 07:53:44;;;;;;;24.40;16.60;;;2.80;99.90;;;;;;5055387;28;20071;-86
2021/11/27 07:56:12;;;;;;;24.08;14.80;;;2.90;99.90;;;;;;5055203;28;20040;-87
2021/11/27 07:58:39;;;;;;;24.20;15.38;;;3.00;99.90;;;;;;5054949;28;20052;-86
2021/11/27 08:01:06;;;;;;;29.35;16.67;;;3.10;99.90;;;;;;5075794;28;20057;-86
2021/11/27 08:03:37;;;;;;;22.88;15.15;;;3.20;99.90;;;;;;5040012;28;20056;-86
2021/11/27 08:06:04;;;;;;;28.73;15.75;;;3.20;99.90;;;;;;5055161;28;20127;-86
2021/11/27 08:08:31;;;;;;;20.55;13.65;;;3.30;99.90;;;;;;5054971;28;20127;-86
2021/11/27 08:10:59;;;;;;;23.70;15.73;;;3.10;99.90;;;;;;5072585;28;20538;-86
2021/11/27 08:13:27;;;;;;;24.45;15.18;;;3.00;99.90;;;;;;5054748;28;20048;-86
2021/11/27 08:15:53;;;;;;;23.25;16.27;;;2.80;99.90;;;;;;5072645;28;20055;-86
2021/11/27 08:18:20;;;;;;;22.58;15.30;;;2.80;99.90;;;;;;5072161;28;20508;-86
2021/11/27 08:20:49;;;;;;;23.33;15.73;;;2.90;99.90;;;;;;5054942;28;20443;-86
2021/11/27 08:23:37;;;;;;;22.55;15.38;;;3.10;99.90;;;;;;5057686;28;20052;-87
2021/11/27 08:26:04;;;;;;;23.25;14.13;;;3.10;99.90;;;;;;5072506;28;20415;-86
2021/11/27 08:28:31;;;;;;;25.10;15.25;;;3.10;99.90;;;;;;5072552;28;20048;-86
2021/11/27 08:30:58;;;;;;;23.13;14.70;;;3.10;99.90;;;;;;5054892;28;20054;-86
2021/11/27 08:33:25;;;;;;;23.95;14.38;;;3.10;99.90;;;;;;5057821;28;20058;-86
2021/11/27 08:35:52;;;;;;;21.95;14.52;;;2.90;99.90;;;;;;5058003;28;20052;-86
2021/11/27 08:38:19;;;;;;;19.35;14.10;;;3.10;99.90;;;;;;5075686;28;20397;-86
2021/11/27 08:40:47;;;;;;;18.30;13.27;;;3.20;99.90;;;;;;5075703;28;20049;-85
2021/11/27 08:43:14;;;;;;;19.20;13.40;;;3.40;99.90;;;;;;5058213;28;20044;-86
2021/11/27 08:45:41;;;;;;;17.38;12.55;;;3.50;99.90;;;;;;5058361;28;20428;-86
2021/11/27 08:48:08;;;;;;;17.73;12.63;;;3.60;99.90;;;;;;5057913;28;20105;-86
2021/11/27 08:50:35;;;;;;;21.88;13.77;;;3.70;99.90;;;;;;5057738;28;20083;-86
2021/11/27 08:53:02;;;;;;;18.05;13.35;;;3.70;99.90;;;;;;5075430;28;20052;-85
2021/11/27 08:55:29;;;;;;;17.70;12.65;;;3.50;99.90;;;;;;5057933;28;20052;-86
2021/11/27 08:57:55;;;;;;;17.15;12.30;;;3.60;99.90;;;;;;5075463;28;20385;-86
2021/11/27 09:00:22;;;;;;;15.93;11.05;;;3.60;99.90;;;;;;5057751;28;20129;-86
2021/11/27 09:02:50;;;;;;;15.52;10.52;;;3.70;99.90;;;;;;5074555;28;20404;-86
2021/11/27 09:05:17;;;;;;;16.25;12.57;;;3.70;99.90;;;;;;5060840;28;20417;-86
2021/11/27 09:07:43;;;;;;;13.48;10.18;;;3.60;99.90;;;;;;5075622;28;20051;-86
2021/11/27 09:10:10;;;;;;;11.45;9.35;;;3.60;99.90;;;;;;5075207;28;20461;-85
2021/11/27 09:12:37;;;;;;;15.05;11.77;;;3.70;99.90;;;;;;5057265;28;20055;-85
2021/11/27 09:15:05;;;;;;;13.32;10.73;;;3.80;99.90;;;;;;5057160;28;20056;-85
2021/11/27 09:17:32;;;;;;;17.55;11.43;;;3.90;99.90;;;;;;5057329;28;20044;-86
2021/11/27 09:19:58;;;;;;;27.40;20.35;;;3.90;99.90;;;;;;5074971;28;20083;-86
2021/11/27 09:22:25;;;;;;;15.15;12.23;;;4.00;99.90;;;;;;5074740;28;20127;-86
2021/11/27 09:24:52;;;;;;;15.52;12.40;;;3.90;99.90;;;;;;5056596;28;20062;-86
2021/11/27 09:27:19;;;;;;;14.52;10.90;;;3.80;99.90;;;;;;5057195;28;20135;-86
2021/11/27 09:29:45;;;;;;;13.43;10.05;;;3.90;99.90;;;;;;5057274;28;20048;-86
2021/11/27 09:32:14;;;;;;;14.25;10.07;;;3.80;99.90;;;;;;5074508;28;20488;-86
2021/11/27 09:34:41;;;;;;;12.70;9.55;;;4.00;99.90;;;;;;5074288;28;20058;-86
2021/11/27 09:37:12;;;;;;;16.25;10.52;;;4.10;99.90;;;;;;5074450;28;20056;-86
2021/11/27 09:39:41;;;;;;;10.98;8.52;;;4.20;99.90;;;;;;5074784;28;20508;-85
2021/11/27 09:42:08;;;;;;;12.85;7.80;;;4.40;99.90;;;;;;5056865;28;20049;-86
2021/11/27 09:44:37;;;;;;;9.85;6.60;;;4.50;99.90;;;;;;5056040;28;20048;-86
2021/11/27 09:47:04;;;;;;;9.18;7.50;;;4.60;99.90;;;;;;5055969;28;20053;-86
2021/11/27 09:49:34;;;;;;;9.15;7.38;;;4.60;99.90;;;;;;5056742;28;20458;-86
2021/11/27 09:52:01;;;;;;;7.65;6.80;;;4.80;99.90;;;;;;5056943;28;20079;-86
2021/11/27 09:54:28;;;;;;;7.07;6.38;;;4.90;99.90;;;;;;5074494;28;20055;-86
2021/11/27 09:56:55;;;;;;;7.63;5.57;;;4.90;99.90;;;;;;5056906;28;20476;-86
2021/11/27 09:59:23;;;;;;;5.60;5.10;;;4.90;99.90;;;;;;5056188;28;20060;-87
2021/11/27 10:01:53;;;;;;;5.53;4.57;;;4.90;99.90;;;;;;5074618;28;20392;-86
2021/11/27 10:04:22;;;;;;;5.45;4.93;;;4.80;99.90;;;;;;5056368;28;20055;-86
2021/11/27 10:06:49;;;;;;;4.20;3.90;;;4.70;99.90;;;;;;5056567;28;20049;-86
2021/11/27 10:09:18;;;;;;;4.03;3.60;;;4.70;99.90;;;;;;5056718;28;20574;-86
2021/11/27 10:11:48;;;;;;;4.95;3.58;;;4.60;99.90;;;;;;5074008;28;20048;-86
2021/11/27 10:14:16;;;;;;;4.15;3.75;;;4.70;99.90;;;;;;5056260;28;20044;-86
2021/11/27 10:17:03;;;;;;;3.05;2.85;;;4.70;99.90;;;;;;5073990;28;20078;-87
2021/11/27 10:19:55;;;;;;;3.20;2.50;;;4.80;99.90;;;;;;5053031;28;20575;-87
2021/11/27 10:22:37;;;;;;;2.75;2.55;;;5.10;99.90;;;;;;5040420;28;20402;-87
2021/11/27 10:25:26;;;;;;;2.50;2.40;;;5.00;99.90;;;;;;5068792;28;20419;-86
2021/11/27 10:28:12;;;;;;;2.40;2.20;;;5.00;99.90;;;;;;5034280;28;20123;-87
2021/11/27 10:30:52;;;;;;;2.13;2.03;;;5.00;99.90;;;;;;5046304;28;20490;-86
2021/11/27 10:33:20;;;;;;;2.05;1.95;;;4.90;99.90;;;;;;5043933;28;20048;-86
2021/11/27 10:36:13;;;;;;;1.45;1.45;;;5.10;99.90;;;;;;5062353;28;20076;-87
2021/11/27 10:38:43;;;;;;;2.08;1.98;;;5.20;99.90;;;;;;5060595;28;20052;-87
2021/11/27 10:41:14;;;;;;;1.70;1.60;;;5.20;99.90;;;;;;5061874;28;20056;-87
2021/11/27 10:44:03;;;;;;;1.60;1.50;;;5.20;99.90;;;;;;5063693;28;20094;-87
2021/11/27 10:46:33;;;;;;;2.80;2.60;;;5.20;99.90;;;;;;5043831;28;20424;-87
2021/11/27 10:49:06;;;;;;;1.52;1.45;;;5.40;99.90;;;;;;5073250;28;20068;-86
2021/11/27 10:51:34;;;;;;;2.63;2.42;;;5.40;99.90;;;;;;5055693;28;20563;-87
2021/11/27 10:54:03;;;;;;;2.90;2.72;;;5.40;99.90;;;;;;5055544;28;20145;-87
2021/11/27 10:56:46;;;;;;;2.35;2.22;;;5.70;99.90;;;;;;5072271;28;20045;-88
2021/11/27 10:59:14;;;;;;;3.00;2.80;;;5.90;99.90;;;;;;5055470;28;20080;-88
2021/11/27 11:02:10;;;;;;;3.95;3.58;;;6.00;99.90;;;;;;5073638;28;20044;-87
2021/11/27 11:04:38;;;;;;;8.63;6.97;;;5.70;99.90;;;;;;5073398;28;20080;-86
2021/11/27 11:07:25;;;;;;;11.70;9.80;;;5.50;99.90;;;;;;5055840;28;20045;-87
2021/11/27 11:10:06;;;;;;;2.60;2.50;;;5.50;99.90;;;;;;5055898;28;20477;-87
2021/11/27 11:12:36;;;;;;;1.42;1.33;;;5.50;99.90;;;;;;5055876;28;20052;-87
2021/11/27 11:15:08;;;;;;;1.25;0.80;;;5.50;99.90;;;;;;5055635;28;20083;-87
2021/11/27 11:17:35;;;;;;;1.05;0.95;;;5.50;99.90;;;;;;5072019;28;20515;-87
2021/11/27 11:20:17;;;;;;;0.88;0.88;;;5.90;99.90;;;;;;5055923;28;20041;-87
2021/11/27 11:23:04;;;;;;;1.10;1.05;;;6.10;99.90;;;;;;5055346;28;20143;-87
2021/11/27 11:25:33;;;;;;;1.15;0.90;;;6.20;99.90;;;;;;5055640;28;20051;-87
2021/11/27 11:28:11;;;;;;;1.02;1.02;;;6.30;99.90;;;;;;5055454;28;20052;-87
2021/11/27 11:30:39;;;;;;;1.15;1.05;;;6.10;99.90;;;;;;5055212;28;20044;-87
2021/11/27 11:33:06;;;;;;;1.98;0.75;;;6.00;99.90;;;;;;5073166;28;20064;-86
2021/11/27 11:35:34;;;;;;;0.90;0.90;;;5.80;99.90;;;;;;5058669;28;20131;-87
2021/11/27 11:38:06;;;;;;;1.83;0.88;;;5.70;99.90;;;;;;5072352;28;20318;-86
2021/11/27 11:40:33;;;;;;;0.70;0.70;;;5.50;99.90;;;;;;5055330;28;20049;-87
2021/11/27 11:43:01;;;;;;;0.77;0.77;;;5.30;99.90;;;;;;5055457;28;20045;-87
2021/11/27 11:45:28;;;;;;;1.00;1.00;;;5.40;99.90;;;;;;5055159;28;20396;-87
2021/11/27 11:47:56;;;;;;;0.85;0.85;;;5.30;99.90;;;;;;5055519;28;20132;-86
2021/11/27 11:50:42;;;;;;;0.90;0.90;;;5.20;99.90;;;;;;5056863;28;20052;-87
2021/11/27 11:53:16;;;;;;;0.90;0.90;;;5.20;99.90;;;;;;5055323;28;20083;-87
2021/11/27 11:56:03;;;;;;;1.52;1.40;;;5.20;99.90;;;;;;5054959;28;20348;-87
2021/11/27 11:58:43;;;;;;;1.85;1.75;;;5.20;99.90;;;;;;5054696;28;20049;-87
2021/11/27 12:01:17;;;;;;;1.38;1.27;;;5.10;99.90;;;;;;5055727;28;20049;-87
2021/11/27 12:03:47;;;;;;;1.60;1.50;;;5.00;99.90;;;;;;5073025;28;20049;-87
2021/11/27 12:06:23;;;;;;;1.90;1.65;;;4.90;99.90;;;;;;5055239;28;20044;-87
2021/11/27 12:08:52;;;;;;;5.28;3.00;;;4.90;99.90;;;;;;5058853;28;20048;-87
2021/11/27 12:11:41;;;;;;;4.90;2.92;;;4.80;99.90;;;;;;5059899;28;20497;-87
2021/11/27 12:14:35;;;;;;;2.78;2.58;;;4.60;99.90;;;;;;5076439;28;20076;-86
2021/11/27 12:17:19;;;;;;;3.33;3.03;;;4.50;99.90;;;;;;5054980;28;20055;-88
2021/11/27 12:19:54;;;;;;;2.92;2.72;;;4.50;99.90;;;;;;5076821;28;20079;-87
2021/11/27 12:22:24;;;;;;;3.25;2.75;;;4.30;99.90;;;;;;5059088;28;20052;-87
2021/11/27 12:25:19;;;;;;;3.45;3.15;;;4.30;99.90;;;;;;5058587;28;20507;-87
2021/11/27 12:28:04;;;;;;;3.28;3.08;;;4.30;99.90;;;;;;5023359;28;20121;-86
2021/11/27 12:30:41;;;;;;;3.28;3.08;;;4.20;99.90;;;;;;5058880;28;20490;-87
2021/11/27 12:33:40;;;;;;;4.10;3.80;;;4.20;99.90;;;;;;5058466;28;20060;-87
2021/11/27 12:36:25;;;;;;;6.07;3.47;;;4.20;99.90;;;;;;5058573;28;20053;-86
2021/11/27 12:39:03;;;;;;;3.50;3.30;;;4.10;99.90;;;;;;5075805;28;20098;-87
2021/11/27 12:41:45;;;;;;;3.60;3.30;;;4.10;99.90;;;;;;5058060;28;20049;-86
2021/11/27 12:44:21;;;;;;;11.63;4.68;;;4.10;99.90;;;;;;5074906;28;20171;-86
2021/11/27 12:47:22;;;;;;;4.25;3.95;;;3.90;99.90;;;;;;5058245;28;20473;-86
2021/11/27 12:49:49;;;;;;;4.03;3.72;;;3.90;99.90;;;;;;5060601;28;20049;-87
2021/11/27 12:52:27;;;;;;;4.55;3.60;;;3.90;99.90;;;;;;5057991;28;20056;-86
2021/11/27 12:55:17;;;;;;;5.30;4.13;;;3.90;99.90;;;;;;5058303;28;20117;-86
2021/11/27 12:57:46;;;;;;;4.53;4.13;;;4.00;99.90;;;;;;5058126;28;20041;-87